Time;durP1;ratioP1;P1;durP2;ratioP2;P2;SDS_P1;SDS_P2;PMS_P1;PMS_P2;Temp;Humidity;BMP_temperature;BMP_pressure;BME280_temperature;BME280_humidity;BME280_pressure;Samples;Min_cycle;Max_cycle;Signal;HPM_P1;HPM_P2
2021/04/27 00:00:48;;;;;;;3.80;2.13;;;6.60;87.50;;;;;;5086702;28;20020;-84
2021/04/27 00:03:14;;;;;;;4.47;1.85;;;6.60;87.60;;;;;;5086399;28;20035;-84
2021/04/27 00:05:40;;;;;;;2.42;1.65;;;6.60;87.80;;;;;;5086300;28;20192;-84
2021/04/27 00:08:06;;;;;;;5.35;2.08;;;6.60;88.30;;;;;;5086312;28;20470;-85
2021/04/27 00:10:32;;;;;;;4.80;2.05;;;6.60;88.40;;;;;;5104527;28;20028;-85
2021/04/27 00:13:00;;;;;;;4.60;2.35;;;6.50;88.60;;;;;;5090270;28;20016;-85
2021/04/27 00:15:27;;;;;;;4.10;2.00;;;6.50;88.60;;;;;;5100597;28;20031;-85
2021/04/27 00:17:53;;;;;;;4.70;1.80;;;6.40;88.60;;;;;;5096091;28;20101;-86
2021/04/27 00:20:21;;;;;;;4.57;2.00;;;6.40;89.10;;;;;;5107660;28;20047;-84
2021/04/27 00:22:47;;;;;;;5.35;2.15;;;6.40;89.30;;;;;;5095641;28;20024;-85
2021/04/27 00:25:13;;;;;;;5.00;2.00;;;6.40;89.90;;;;;;5110015;28;20046;-84
2021/04/27 00:27:40;;;;;;;4.30;2.63;;;6.30;89.70;;;;;;5099445;28;20028;-85
2021/04/27 00:30:08;;;;;;;4.82;2.10;;;6.30;89.90;;;;;;5090563;28;20032;-83
2021/04/27 00:32:35;;;;;;;3.28;1.73;;;6.30;90.00;;;;;;5089042;28;20027;-84
2021/04/27 00:35:01;;;;;;;7.68;2.10;;;6.20;90.00;;;;;;5089259;28;20091;-83
2021/04/27 00:37:27;;;;;;;3.70;2.17;;;6.20;90.10;;;;;;5089575;28;20024;-84
2021/04/27 00:39:52;;;;;;;5.10;2.20;;;6.20;90.20;;;;;;5089845;28;20144;-84
2021/04/27 00:42:28;;;;;;;6.05;2.00;;;6.20;90.30;;;;;;5090830;28;20401;-84
2021/04/27 00:44:54;;;;;;;6.50;2.25;;;6.10;90.30;;;;;;5089661;28;20074;-83
2021/04/27 00:47:19;;;;;;;5.00;2.53;;;6.10;90.50;;;;;;5091011;28;20532;-84
2021/04/27 00:49:45;;;;;;;4.25;2.28;;;6.10;90.70;;;;;;5105239;28;20024;-84
2021/04/27 00:52:10;;;;;;;8.23;2.60;;;6.00;90.70;;;;;;5108996;28;20027;-83
2021/04/27 00:54:36;;;;;;;5.63;2.63;;;6.00;90.80;;;;;;5102865;28;20068;-82
2021/04/27 00:57:02;;;;;;;3.92;1.92;;;6.00;90.90;;;;;;5106291;28;20023;-82
2021/04/27 00:59:27;;;;;;;5.63;2.83;;;6.00;90.90;;;;;;5104732;28;20035;-83
2021/04/27 01:01:53;;;;;;;3.50;1.90;;;5.90;91.00;;;;;;5104470;28;20517;-84
2021/04/27 01:04:19;;;;;;;4.18;2.35;;;5.90;91.10;;;;;;5102231;28;20039;-85
2021/04/27 01:06:44;;;;;;;4.35;2.55;;;5.80;91.10;;;;;;5104935;28;20052;-85
2021/04/27 01:09:23;;;;;;;4.30;2.28;;;5.80;91.20;;;;;;5103711;28;20012;-85
2021/04/27 01:11:58;;;;;;;5.90;2.42;;;5.80;91.20;;;;;;5103244;28;20024;-83
2021/04/27 01:14:40;;;;;;;4.82;2.05;;;5.80;91.30;;;;;;5101715;28;20023;-85
2021/04/27 01:17:08;;;;;;;3.55;2.15;;;5.80;91.40;;;;;;5104805;28;20483;-84
2021/04/27 01:19:42;;;;;;;6.45;2.63;;;5.70;91.80;;;;;;5105361;28;20027;-85
2021/04/27 01:22:18;;;;;;;4.50;2.00;;;5.70;91.50;;;;;;5107531;28;20023;-85
2021/04/27 01:24:52;;;;;;;4.90;2.40;;;5.70;91.60;;;;;;5099211;28;20059;-86
2021/04/27 01:27:17;;;;;;;;;;;5.70;91.60;;;;;;5104674;28;20025;-83
2021/04/27 01:29:44;;;;;;;5.75;2.60;;;5.60;91.60;;;;;;5103826;28;20133;-85
2021/04/27 01:32:09;;;;;;;4.70;2.42;;;5.60;91.70;;;;;;5104276;28;20016;-84
2021/04/27 01:34:39;;;;;;;4.47;2.10;;;5.60;91.80;;;;;;5103105;28;20133;-85
2021/04/27 01:37:05;;;;;;;5.57;2.20;;;5.60;91.80;;;;;;5102007;28;20028;-85
2021/04/27 01:39:32;;;;;;;6.35;2.20;;;5.60;91.90;;;;;;5105105;28;20102;-83
2021/04/27 01:42:06;;;;;;;3.90;2.22;;;5.60;92.10;;;;;;5103550;28;20054;-84
2021/04/27 01:44:38;;;;;;;4.70;2.70;;;5.60;92.20;;;;;;5128468;27;20469;-85
2021/04/27 01:47:06;;;;;;;5.70;2.53;;;5.60;92.20;;;;;;5103172;28;20385;-84
2021/04/27 01:49:32;;;;;;;4.82;2.08;;;5.50;92.20;;;;;;5105263;28;20011;-84
2021/04/27 01:51:59;;;;;;;5.72;2.40;;;5.50;92.30;;;;;;5097624;28;20020;-83
2021/04/27 01:54:26;;;;;;;4.40;2.17;;;5.50;92.30;;;;;;5102149;28;20020;-83
2021/04/27 01:56:53;;;;;;;5.53;3.40;;;5.50;92.30;;;;;;5097584;28;20061;-83
2021/04/27 01:59:18;;;;;;;4.65;2.63;;;5.40;92.30;;;;;;5093939;28;20032;-83
2021/04/27 02:01:44;;;;;;;4.93;2.08;;;5.40;92.50;;;;;;5094199;28;20432;-82
2021/04/27 02:04:10;;;;;;;3.75;2.22;;;5.40;92.60;;;;;;5093797;28;20074;-83
2021/04/27 02:06:35;;;;;;;4.28;2.33;;;5.40;92.60;;;;;;5095187;28;20047;-83
2021/04/27 02:09:07;;;;;;;4.32;2.60;;;5.30;92.60;;;;;;5094427;28;20024;-85
2021/04/27 02:11:38;;;;;;;5.55;2.80;;;5.30;92.70;;;;;;5094305;28;20016;-84
2021/04/27 02:14:04;;;;;;;5.95;2.78;;;5.30;92.90;;;;;;5093531;28;20066;-83
2021/04/27 02:16:58;;;;;;;6.38;2.78;;;5.30;92.90;;;;;;5094473;28;20435;-85
2021/04/27 02:19:25;;;;;;;6.20;2.70;;;5.20;92.90;;;;;;5092636;28;20052;-83
2021/04/27 02:21:55;;;;;;;5.32;2.80;;;5.20;93.00;;;;;;5094267;28;20016;-84
2021/04/27 02:24:23;;;;;;;5.85;2.75;;;5.20;93.00;;;;;;5092801;28;20024;-84
2021/04/27 02:26:49;;;;;;;5.95;2.63;;;5.20;93.00;;;;;;5092354;28;20012;-85
2021/04/27 02:29:15;;;;;;;4.03;2.40;;;5.10;93.10;;;;;;5092732;28;20035;-83
2021/04/27 02:31:41;;;;;;;4.60;2.60;;;5.10;93.20;;;;;;5092776;28;20027;-84
2021/04/27 02:34:07;;;;;;;3.80;2.35;;;5.10;93.30;;;;;;5092190;28;20032;-85
2021/04/27 02:36:37;;;;;;;5.30;2.40;;;5.10;93.30;;;;;;5094212;28;20039;-85
2021/04/27 02:39:08;;;;;;;4.55;2.67;;;5.00;93.30;;;;;;5091505;28;20020;-85
2021/04/27 02:41:35;;;;;;;3.92;2.40;;;5.00;93.30;;;;;;5092386;28;20024;-85
2021/04/27 02:44:01;;;;;;;3.15;2.25;;;5.00;93.40;;;;;;5092631;28;20024;-84
2021/04/27 02:46:28;;;;;;;4.50;2.50;;;5.00;93.50;;;;;;5093713;28;20028;-82
2021/04/27 02:48:54;;;;;;;4.55;2.80;;;4.90;93.50;;;;;;5092649;28;20026;-85
2021/04/27 02:51:20;;;;;;;6.05;2.65;;;4.90;93.70;;;;;;5092406;28;20030;-86
2021/04/27 02:53:45;;;;;;;5.07;2.63;;;4.90;93.60;;;;;;5093398;28;20035;-85
2021/04/27 02:56:11;;;;;;;4.40;2.47;;;4.90;93.70;;;;;;5093396;28;20020;-85
2021/04/27 02:58:37;;;;;;;4.78;2.35;;;4.80;93.70;;;;;;5092341;28;20111;-85
2021/04/27 03:01:02;;;;;;;3.33;2.30;;;4.80;93.70;;;;;;5093240;28;20051;-84
2021/04/27 03:03:28;;;;;;;3.53;2.30;;;4.80;93.80;;;;;;5092278;28;20024;-84
2021/04/27 03:05:53;;;;;;;3.40;2.10;;;4.80;93.80;;;;;;5093081;28;20036;-84
2021/04/27 03:08:19;;;;;;;5.00;2.22;;;4.80;93.90;;;;;;5091930;28;20028;-85
2021/04/27 03:10:46;;;;;;;6.20;2.63;;;4.80;93.90;;;;;;5092998;28;20024;-85
2021/04/27 03:13:11;;;;;;;3.35;2.35;;;4.70;94.00;;;;;;5092044;28;20018;-85
2021/04/27 03:15:37;;;;;;;4.78;2.55;;;4.70;94.00;;;;;;5092046;28;20039;-85
2021/04/27 03:18:03;;;;;;;3.63;2.00;;;4.70;94.00;;;;;;5092891;28;20032;-86
2021/04/27 03:20:28;;;;;;;4.57;2.40;;;4.70;94.10;;;;;;5091935;28;20020;-86
2021/04/27 03:22:54;;;;;;;6.32;2.97;;;4.70;94.10;;;;;;5092180;28;20103;-84
2021/04/27 03:25:20;;;;;;;4.10;2.90;;;4.60;94.10;;;;;;5092230;28;20016;-84
2021/04/27 03:27:47;;;;;;;6.55;2.50;;;4.60;94.10;;;;;;5093148;28;20085;-86
2021/04/27 03:30:13;;;;;;;4.03;2.10;;;4.60;94.20;;;;;;5093255;28;20404;-84
2021/04/27 03:32:40;;;;;;;4.30;2.42;;;4.60;94.20;;;;;;5093156;28;20044;-85
2021/04/27 03:35:07;;;;;;;4.95;2.35;;;4.60;94.20;;;;;;5092522;28;20039;-86
2021/04/27 03:37:33;;;;;;;5.50;2.85;;;4.50;94.20;;;;;;5091814;28;20498;-86
2021/04/27 03:39:58;;;;;;;4.85;2.40;;;4.50;94.30;;;;;;5091634;28;20059;-85
2021/04/27 03:42:24;;;;;;;4.68;2.70;;;4.50;94.30;;;;;;5092956;28;20052;-86
2021/04/27 03:44:50;;;;;;;7.07;2.60;;;4.50;94.40;;;;;;5091789;28;20085;-84
2021/04/27 03:47:16;;;;;;;3.90;2.22;;;4.50;94.40;;;;;;5097142;28;20090;-85
2021/04/27 03:49:42;;;;;;;5.57;2.47;;;4.50;94.40;;;;;;5095946;28;20453;-84
2021/04/27 03:52:07;;;;;;;4.43;2.70;;;4.50;94.50;;;;;;5097285;28;20060;-84
2021/04/27 03:54:33;;;;;;;5.72;2.90;;;4.40;94.50;;;;;;5096584;28;20090;-85
2021/04/27 03:56:59;;;;;;;5.35;2.88;;;4.40;94.50;;;;;;5095776;28;20035;-84
2021/04/27 03:59:25;;;;;;;5.57;2.85;;;4.40;94.50;;;;;;5095676;28;20027;-85
2021/04/27 04:01:50;;;;;;;5.68;3.47;;;4.40;94.60;;;;;;5095893;28;20016;-85
2021/04/27 04:04:16;;;;;;;5.30;3.20;;;4.40;94.70;;;;;;5095593;28;20050;-85
2021/04/27 04:06:41;;;;;;;8.20;3.03;;;4.40;94.70;;;;;;5096426;28;20418;-86
2021/04/27 04:09:08;;;;;;;5.50;3.08;;;4.40;94.70;;;;;;5095757;28;20027;-84
2021/04/27 04:11:35;;;;;;;4.68;2.83;;;4.40;94.70;;;;;;5078403;28;20394;-84
2021/04/27 04:14:01;;;;;;;5.05;3.08;;;4.40;94.80;;;;;;5095404;28;20036;-83
2021/04/27 04:16:27;;;;;;;5.03;2.45;;;4.30;94.80;;;;;;5095198;28;20538;-85
2021/04/27 04:18:53;;;;;;;3.65;2.42;;;4.30;94.80;;;;;;5095311;28;20044;-85
2021/04/27 04:21:19;;;;;;;4.65;2.85;;;4.30;94.80;;;;;;5096875;28;20363;-85
2021/04/27 04:23:46;;;;;;;4.53;2.95;;;4.30;94.90;;;;;;5095364;28;20016;-86
2021/04/27 04:26:14;;;;;;;5.93;3.20;;;4.30;94.90;;;;;;5095636;28;20519;-85
2021/04/27 04:28:41;;;;;;;3.97;2.60;;;4.30;95.00;;;;;;5095221;28;20023;-84
2021/04/27 04:31:06;;;;;;;4.28;2.60;;;4.30;94.90;;;;;;5095411;28;20024;-88
2021/04/27 04:33:32;;;;;;;4.93;2.90;;;4.30;94.90;;;;;;5096891;28;20031;-86
2021/04/27 04:35:58;;;;;;;5.30;3.22;;;4.30;94.90;;;;;;5094999;28;20040;-84
2021/04/27 04:38:24;;;;;;;4.28;2.85;;;4.30;94.90;;;;;;5096333;28;20020;-85
2021/04/27 04:40:49;;;;;;;5.15;2.90;;;4.30;94.90;;;;;;5096404;28;20471;-86
2021/04/27 04:43:17;;;;;;;5.13;3.10;;;4.30;94.90;;;;;;5097217;28;20028;-85
2021/04/27 04:45:43;;;;;;;5.95;3.08;;;4.30;94.90;;;;;;5095337;28;20020;-85
2021/04/27 04:48:10;;;;;;;4.78;3.08;;;4.30;95.00;;;;;;5097483;28;20474;-84
2021/04/27 04:50:36;;;;;;;4.80;3.00;;;4.30;95.00;;;;;;5095213;28;20024;-85
2021/04/27 04:53:03;;;;;;;5.15;3.03;;;4.30;94.90;;;;;;5094419;28;20022;-85
2021/04/27 04:55:28;;;;;;;4.07;2.90;;;4.30;95.00;;;;;;5094764;28;20043;-84
2021/04/27 04:57:54;;;;;;;7.25;3.08;;;4.30;95.00;;;;;;5094355;28;20016;-84
2021/04/27 05:00:22;;;;;;;4.57;2.70;;;4.30;95.00;;;;;;5095698;28;20035;-85
2021/04/27 05:02:47;;;;;;;8.45;3.20;;;4.40;95.00;;;;;;5094254;28;20031;-83
2021/04/27 05:05:14;;;;;;;3.90;2.80;;;4.30;95.00;;;;;;5094454;28;20036;-84
2021/04/27 05:07:44;;;;;;;4.10;2.67;;;4.40;95.00;;;;;;5094330;28;20543;-83
2021/04/27 05:10:11;;;;;;;4.22;2.72;;;4.40;95.00;;;;;;5094264;28;20046;-84
2021/04/27 05:12:43;;;;;;;3.90;2.50;;;4.40;95.00;;;;;;5096078;28;20051;-84
2021/04/27 05:15:09;;;;;;;5.03;2.58;;;4.50;95.00;;;;;;5093819;28;20048;-83
2021/04/27 05:17:35;;;;;;;5.32;3.00;;;4.50;95.00;;;;;;5095577;28;20066;-83
2021/04/27 05:20:02;;;;;;;6.68;3.20;;;4.50;95.00;;;;;;5095365;28;20032;-83
2021/04/27 05:22:28;;;;;;;6.82;3.05;;;4.60;95.00;;;;;;5094085;28;20024;-84
2021/04/27 05:24:55;;;;;;;5.50;3.40;;;4.60;94.90;;;;;;5093816;28;20024;-83
2021/04/27 05:27:20;;;;;;;5.75;3.45;;;4.70;94.90;;;;;;5094089;28;20081;-84
2021/04/27 05:29:46;;;;;;;5.60;3.63;;;4.70;94.90;;;;;;5094940;28;20549;-85
2021/04/27 05:32:12;;;;;;;5.30;3.00;;;4.80;94.90;;;;;;5093850;28;20474;-83
2021/04/27 05:34:37;;;;;;;5.28;3.67;;;4.80;94.90;;;;;;5095022;28;20040;-85
2021/04/27 05:37:03;;;;;;;8.73;3.60;;;4.80;94.80;;;;;;5093938;28;20024;-84
2021/04/27 05:39:30;;;;;;;6.40;3.97;;;4.90;94.80;;;;;;5093599;28;20024;-82
2021/04/27 05:41:55;;;;;;;6.18;3.72;;;5.00;94.80;;;;;;5093739;28;20420;-83
2021/04/27 05:44:21;;;;;;;6.70;3.25;;;5.00;94.70;;;;;;5093254;28;20049;-83
2021/04/27 05:46:47;;;;;;;5.32;3.47;;;5.00;94.70;;;;;;5094875;28;20470;-84
2021/04/27 05:49:12;;;;;;;6.05;3.63;;;5.10;94.60;;;;;;5093493;28;20028;-84
2021/04/27 05:51:38;;;;;;;4.28;3.05;;;5.10;94.60;;;;;;5093538;28;20016;-84
2021/04/27 05:54:05;;;;;;;5.75;3.50;;;5.20;94.60;;;;;;5093498;28;20501;-84
2021/04/27 05:56:32;;;;;;;6.53;3.60;;;5.20;94.50;;;;;;5093338;28;20118;-84
2021/04/27 05:58:58;;;;;;;7.93;3.17;;;5.30;94.50;;;;;;5094738;28;20100;-84
2021/04/27 06:01:24;;;;;;;5.38;3.38;;;5.30;94.40;;;;;;5093319;28;20020;-85
2021/04/27 06:03:51;;;;;;;4.15;2.92;;;5.40;94.40;;;;;;5094391;28;20032;-86
2021/04/27 06:06:16;;;;;;;6.63;3.40;;;5.50;94.40;;;;;;5094361;28;20052;-86
2021/04/27 06:08:42;;;;;;;6.82;3.47;;;5.50;94.30;;;;;;5093752;28;20040;-85
2021/04/27 06:11:08;;;;;;;8.02;3.80;;;5.60;94.20;;;;;;5094622;28;20028;-85
2021/04/27 06:13:34;;;;;;;5.55;3.50;;;5.70;94.20;;;;;;5094128;28;20091;-85
2021/04/27 06:16:01;;;;;;;6.22;3.00;;;5.70;94.10;;;;;;5094335;28;20024;-84
2021/04/27 06:18:27;;;;;;;4.65;3.35;;;5.80;94.00;;;;;;5092857;28;20059;-83
2021/04/27 06:20:53;;;;;;;6.40;3.42;;;5.80;94.00;;;;;;5094111;28;20056;-84
2021/04/27 06:23:18;;;;;;;5.45;3.00;;;5.90;93.90;;;;;;5093163;28;20020;-84
2021/04/27 06:25:44;;;;;;;4.68;3.08;;;6.00;93.80;;;;;;5093850;28;20126;-84
2021/04/27 06:28:11;;;;;;;4.82;3.10;;;6.10;93.70;;;;;;5092545;28;20020;-83
2021/04/27 06:30:37;;;;;;;6.35;3.75;;;6.20;93.60;;;;;;5092693;28;20074;-83
2021/04/27 06:33:03;;;;;;;6.00;3.95;;;6.30;93.30;;;;;;5092513;28;20030;-85
2021/04/27 06:35:29;;;;;;;5.13;3.33;;;6.40;93.30;;;;;;5092851;28;20126;-84
2021/04/27 06:37:55;;;;;;;5.55;3.33;;;6.40;93.20;;;;;;5092651;28;20024;-85
2021/04/27 06:40:21;;;;;;;4.38;3.13;;;6.50;93.20;;;;;;5092497;28;20048;-86
2021/04/27 06:42:47;;;;;;;3.92;2.38;;;6.50;93.10;;;;;;5092611;28;20536;-86
2021/04/27 06:45:14;;;;;;;5.10;3.60;;;6.60;93.00;;;;;;5092529;28;20024;-85
2021/04/27 06:47:39;;;;;;;6.18;3.75;;;6.70;92.70;;;;;;5093244;28;20092;-85
2021/04/27 06:50:06;;;;;;;6.45;3.63;;;6.80;92.80;;;;;;5094369;28;20047;-85
2021/04/27 06:52:32;;;;;;;5.97;3.85;;;6.80;92.60;;;;;;5092388;28;20111;-84
2021/04/27 06:54:58;;;;;;;4.80;3.15;;;6.90;92.50;;;;;;5093502;28;20541;-85
2021/04/27 06:57:24;;;;;;;5.32;3.10;;;7.00;92.30;;;;;;5093585;28;20125;-85
2021/04/27 06:59:50;;;;;;;4.28;2.83;;;7.00;92.10;;;;;;5093368;28;20382;-84
2021/04/27 07:02:15;;;;;;;5.03;3.13;;;7.10;92.00;;;;;;5093251;28;20053;-84
2021/04/27 07:04:41;;;;;;;5.13;3.10;;;7.20;91.90;;;;;;5092380;28;20020;-86
2021/04/27 07:07:08;;;;;;;5.82;3.67;;;7.30;92.00;;;;;;5091123;28;20528;-86
2021/04/27 07:09:35;;;;;;;7.43;3.53;;;7.30;91.90;;;;;;5094214;28;20048;-86
2021/04/27 07:12:01;;;;;;;3.85;2.90;;;7.40;91.60;;;;;;5092837;28;20016;-85
2021/04/27 07:14:27;;;;;;;6.15;3.30;;;7.50;91.60;;;;;;5094515;28;20082;-84
2021/04/27 07:16:53;;;;;;;6.10;3.42;;;7.50;91.40;;;;;;5094148;28;20450;-85
2021/04/27 07:19:19;;;;;;;5.93;3.53;;;7.60;91.20;;;;;;5092504;28;20107;-83
2021/04/27 07:21:44;;;;;;;6.18;3.30;;;7.70;90.90;;;;;;5093839;28;20401;-85
2021/04/27 07:24:11;;;;;;;4.40;2.75;;;7.80;90.90;;;;;;5095494;28;20097;-84
2021/04/27 07:26:40;;;;;;;5.82;3.38;;;7.80;90.90;;;;;;5093850;28;20496;-85
2021/04/27 07:29:06;;;;;;;6.65;3.42;;;8.00;90.80;;;;;;5092752;28;20047;-86
2021/04/27 07:31:32;;;;;;;4.20;2.90;;;8.20;90.80;;;;;;5092432;28;20474;-83
2021/04/27 07:33:58;;;;;;;4.57;2.60;;;8.30;90.70;;;;;;5091770;28;20375;-85
2021/04/27 07:36:23;;;;;;;5.60;3.10;;;8.50;90.50;;;;;;5092135;28;20020;-87
2021/04/27 07:38:49;;;;;;;4.70;3.10;;;8.60;90.30;;;;;;5091560;28;20163;-86
2021/04/27 07:41:14;;;;;;;5.10;3.33;;;8.70;90.30;;;;;;5091726;28;20023;-87
2021/04/27 07:43:40;;;;;;;3.47;2.60;;;8.70;90.30;;;;;;5091747;28;20026;-85
2021/04/27 07:46:06;;;;;;;5.00;3.10;;;8.70;90.10;;;;;;5092939;28;20027;-84
2021/04/27 07:48:32;;;;;;;4.72;3.05;;;8.70;90.00;;;;;;5091926;28;20029;-83
2021/04/27 07:50:58;;;;;;;3.70;2.50;;;8.60;90.10;;;;;;5091809;28;20020;-85
2021/04/27 07:53:24;;;;;;;5.18;2.97;;;8.70;90.20;;;;;;5092838;28;20039;-84
2021/04/27 07:55:49;;;;;;;5.00;3.50;;;8.80;90.30;;;;;;5092489;28;20036;-83
2021/04/27 07:58:15;;;;;;;6.50;3.25;;;8.90;90.00;;;;;;5091433;28;20071;-84
2021/04/27 08:00:41;;;;;;;7.03;3.50;;;9.00;90.10;;;;;;5092807;28;20024;-84
2021/04/27 08:03:07;;;;;;;6.85;4.05;;;9.00;89.60;;;;;;5091701;28;20074;-84
2021/04/27 08:05:33;;;;;;;5.85;3.30;;;9.10;89.80;;;;;;5091177;28;20090;-84
2021/04/27 08:07:59;;;;;;;4.30;2.80;;;9.20;89.70;;;;;;5092707;28;20519;-85
2021/04/27 08:10:25;;;;;;;7.55;3.33;;;9.30;89.50;;;;;;5091183;28;20028;-85
2021/04/27 08:12:52;;;;;;;7.20;3.30;;;9.40;89.00;;;;;;5091425;28;20028;-83
2021/04/27 08:15:24;;;;;;;5.70;2.75;;;9.50;87.40;;;;;;5091347;28;20032;-84
2021/04/27 08:17:50;;;;;;;4.32;2.60;;;9.70;87.30;;;;;;5092449;28;20020;-85
2021/04/27 08:20:16;;;;;;;5.70;2.60;;;9.70;87.10;;;;;;5092407;28;20032;-85
2021/04/27 08:22:44;;;;;;;3.90;2.22;;;9.80;86.60;;;;;;5092619;28;20028;-84
2021/04/27 08:25:13;;;;;;;4.78;2.45;;;9.90;86.10;;;;;;5092526;28;20035;-84
2021/04/27 08:27:39;;;;;;;7.13;2.90;;;10.00;85.30;;;;;;5091256;28;20030;-83
2021/04/27 08:30:05;;;;;;;4.97;3.25;;;10.10;81.90;;;;;;5092588;28;20099;-83
2021/04/27 08:32:31;;;;;;;5.35;3.00;;;10.20;80.60;;;;;;5094712;28;20089;-84
2021/04/27 08:34:57;;;;;;;4.82;2.97;;;10.30;77.10;;;;;;5096107;28;20036;-84
2021/04/27 08:37:22;;;;;;;5.63;2.33;;;10.40;78.80;;;;;;5095047;28;20028;-83
2021/04/27 08:39:48;;;;;;;7.15;3.00;;;10.50;79.20;;;;;;5095807;28;20024;-85
2021/04/27 08:42:14;;;;;;;4.30;2.90;;;10.50;76.20;;;;;;5094855;28;20031;-84
2021/04/27 08:44:40;;;;;;;4.53;2.65;;;10.60;77.90;;;;;;5095931;28;20028;-84
2021/04/27 08:47:07;;;;;;;6.97;2.83;;;10.70;78.10;;;;;;5094899;28;20398;-83
2021/04/27 08:49:33;;;;;;;3.08;2.00;;;10.80;77.80;;;;;;5094920;28;20024;-85
2021/04/27 08:51:58;;;;;;;4.00;2.33;;;10.90;78.20;;;;;;5094582;28;20024;-86
2021/04/27 08:54:24;;;;;;;4.05;2.60;;;11.00;78.30;;;;;;5095820;28;20040;-84
2021/04/27 08:56:50;;;;;;;5.82;2.58;;;11.00;76.20;;;;;;5094654;28;20027;-83
2021/04/27 08:59:16;;;;;;;6.68;3.22;;;11.10;76.20;;;;;;5094632;28;20043;-83
2021/04/27 09:01:42;;;;;;;8.23;2.85;;;11.20;75.70;;;;;;5095952;28;20024;-85
2021/04/27 09:04:07;;;;;;;5.75;2.88;;;11.30;75.70;;;;;;5094614;28;20016;-86
2021/04/27 09:06:33;;;;;;;5.38;2.67;;;11.40;75.40;;;;;;5094506;28;20468;-85
2021/04/27 09:08:59;;;;;;;4.28;2.85;;;11.60;75.10;;;;;;5094752;28;20031;-87
2021/04/27 09:11:52;;;;;;;7.25;2.90;;;11.60;74.20;;;;;;5094161;28;20032;-86
2021/04/27 09:14:20;;;;;;;6.28;3.60;;;11.70;74.60;;;;;;5090784;28;20032;-86
2021/04/27 09:16:55;;;;;;;6.05;3.20;;;11.80;74.20;;;;;;5094259;28;20031;-84
2021/04/27 09:19:40;;;;;;;5.15;2.80;;;11.90;72.80;;;;;;5094246;28;20043;-83
2021/04/27 09:22:06;;;;;;;4.63;2.25;;;12.00;73.90;;;;;;5095614;28;20020;-86
2021/04/27 09:24:40;;;;;;;5.03;2.70;;;12.00;74.70;;;;;;5095301;28;20024;-84
2021/04/27 09:27:07;;;;;;;6.97;2.95;;;12.10;74.40;;;;;;5095613;28;20548;-84
2021/04/27 09:29:40;;;;;;;4.20;2.50;;;12.10;74.30;;;;;;5094288;28;20024;-84
2021/04/27 09:32:06;;;;;;;;;;;12.20;73.80;;;;;;5095485;28;20020;-83
2021/04/27 09:34:35;;;;;;;6.05;2.90;;;12.40;69.10;;;;;;5095187;28;20060;-85
2021/04/27 09:37:11;;;;;;;6.90;3.00;;;13.20;69.30;;;;;;5095516;28;20032;-84
2021/04/27 09:39:48;;;;;;;4.15;2.88;;;14.60;66.30;;;;;;5093444;28;20028;-81
2021/04/27 09:42:15;;;;;;;5.05;2.40;;;15.90;64.90;;;;;;5094424;28;20500;-82
2021/04/27 09:44:50;;;;;;;4.65;2.38;;;16.90;64.80;;;;;;5092686;28;20031;-82
2021/04/27 09:47:31;;;;;;;3.55;1.63;;;17.70;61.10;;;;;;5094847;28;20028;-85
2021/04/27 09:50:08;;;;;;;4.60;1.75;;;18.60;61.20;;;;;;5093299;28;20131;-84
2021/04/27 09:52:46;;;;;;;3.50;1.70;;;19.20;60.00;;;;;;5094825;28;20052;-85
2021/04/27 09:55:15;;;;;;;2.83;1.42;;;19.90;58.40;;;;;;5093726;28;20047;-84
2021/04/27 09:57:55;;;;;;;3.45;2.38;;;20.30;57.30;;;;;;5094568;28;20103;-84
2021/04/27 10:00:28;;;;;;;6.13;2.88;;;20.70;50.10;;;;;;5094866;28;20094;-80
2021/04/27 10:02:55;;;;;;;;;;;20.50;47.90;;;;;;5094101;28;20017;-83
2021/04/27 10:05:21;;;;;;;3.75;2.35;;;20.40;49.20;;;;;;5095787;28;19966;-83
2021/04/27 10:07:47;;;;;;;3.03;1.77;;;20.60;50.40;;;;;;5095100;28;20047;-83
2021/04/27 10:10:16;;;;;;;3.72;2.00;;;20.80;49.90;;;;;;5095872;28;20058;-83
2021/04/27 10:12:43;;;;;;;4.93;2.58;;;21.00;49.20;;;;;;5094125;28;20054;-83
2021/04/27 10:15:10;;;;;;;5.97;1.80;;;21.10;43.40;;;;;;5093565;28;20039;-85
2021/04/27 10:17:36;;;;;;;4.32;2.33;;;21.10;46.50;;;;;;5093151;28;20016;-82
2021/04/27 10:20:05;;;;;;;4.15;2.40;;;21.30;45.60;;;;;;5094236;28;20043;-82
2021/04/27 10:22:30;;;;;;;5.32;2.03;;;21.70;44.50;;;;;;5092663;28;20098;-83
2021/04/27 10:24:57;;;;;;;9.05;3.30;;;21.70;43.50;;;;;;5094138;28;20109;-82
2021/04/27 10:27:28;;;;;;;4.10;2.35;;;21.60;40.70;;;;;;5094064;28;20025;-84
2021/04/27 10:30:16;;;;;;;2.70;1.88;;;21.20;43.50;;;;;;5092793;28;20077;-82
2021/04/27 10:32:42;;;;;;;6.90;2.67;;;21.20;44.70;;;;;;5093915;28;20024;-83
2021/04/27 10:35:11;;;;;;;5.88;2.50;;;21.60;43.90;;;;;;5092666;28;20385;-84
2021/04/27 10:38:05;;;;;;;6.03;2.53;;;21.60;41.90;;;;;;5093850;28;20028;-82
2021/04/27 10:40:52;;;;;;;4.07;2.22;;;21.50;40.30;;;;;;5092647;28;20026;-83
2021/04/27 10:43:26;;;;;;;3.53;1.80;;;21.30;43.10;;;;;;5092605;28;20020;-83
2021/04/27 10:45:54;;;;;;;4.53;2.08;;;21.80;43.10;;;;;;5092506;28;20095;-82
2021/04/27 10:48:32;;;;;;;5.85;2.58;;;21.90;42.40;;;;;;5092463;28;20520;-84
2021/04/27 10:51:19;;;;;;;4.43;2.00;;;22.00;43.30;;;;;;5093765;28;20028;-84
2021/04/27 10:54:06;;;;;;;5.00;1.90;;;22.00;43.70;;;;;;5093115;28;20031;-84
2021/04/27 10:56:33;;;;;;;4.13;1.50;;;22.70;42.40;;;;;;5093475;28;20043;-83
2021/04/27 10:59:04;;;;;;;4.88;2.20;;;23.10;43.70;;;;;;5092439;28;20171;-81
2021/04/27 11:01:30;;;;;;;3.10;1.80;;;23.50;43.40;;;;;;5093719;28;20016;-82
2021/04/27 11:03:59;;;;;;;3.67;1.95;;;23.60;43.30;;;;;;5092167;28;20497;-84
2021/04/27 11:06:25;;;;;;;5.00;2.95;;;23.80;42.90;;;;;;5093283;28;20289;-84
2021/04/27 11:08:56;;;;;;;6.30;2.40;;;23.90;40.10;;;;;;5093170;28;20073;-83
2021/04/27 11:11:33;;;;;;;4.93;1.90;;;23.50;40.00;;;;;;5091607;28;20024;-84
2021/04/27 11:14:11;;;;;;;5.43;2.60;;;23.60;40.80;;;;;;5091704;28;20130;-81
2021/04/27 11:16:38;;;;;;;3.67;1.52;;;23.90;40.40;;;;;;5091587;28;20486;-83
2021/04/27 11:19:32;;;;;;;3.25;2.05;;;24.20;41.10;;;;;;5091716;28;20020;-85
2021/04/27 11:22:23;;;;;;;4.65;2.00;;;24.80;40.60;;;;;;5091916;28;20048;-84
2021/04/27 11:24:51;;;;;;;4.43;2.78;;;25.10;40.10;;;;;;5091519;28;20020;-85
2021/04/27 11:27:30;;;;;;;4.78;1.98;;;25.00;39.00;;;;;;5095807;28;20385;-84
2021/04/27 11:30:05;;;;;;;3.20;2.00;;;24.90;39.00;;;;;;5092848;28;20051;-83
2021/04/27 11:32:33;;;;;;;3.85;1.70;;;25.00;39.40;;;;;;5091660;28;20016;-83
2021/04/27 11:35:21;;;;;;;4.43;1.83;;;25.10;40.20;;;;;;5092446;28;20035;-83
2021/04/27 11:37:48;;;;;;;1.70;1.17;;;25.50;39.40;;;;;;5099757;28;20724;-84
2021/04/27 11:40:14;;;;;;;3.90;2.17;;;25.70;39.60;;;;;;5099607;28;20479;-85
2021/04/27 11:42:40;;;;;;;3.08;2.10;;;26.00;39.30;;;;;;5100389;28;20147;-84
2021/04/27 11:45:10;;;;;;;5.55;1.80;;;26.10;38.80;;;;;;5095100;28;20119;-84
2021/04/27 11:47:39;;;;;;;3.30;1.80;;;26.00;38.90;;;;;;5078465;28;20016;-85
2021/04/27 11:50:13;;;;;;;3.53;1.73;;;26.20;38.80;;;;;;5101761;28;20024;-83
2021/04/27 11:52:46;;;;;;;2.80;2.20;;;26.40;38.50;;;;;;5103957;28;20035;-87
2021/04/27 11:55:29;;;;;;;3.38;1.88;;;26.40;37.10;;;;;;5100422;28;20035;-88
2021/04/27 11:58:02;;;;;;;3.65;1.83;;;26.10;37.30;;;;;;5096931;28;20016;-87
2021/04/27 12:00:53;;;;;;;3.25;1.73;;;26.20;37.70;;;;;;5092289;28;20089;-88
2021/04/27 12:03:32;;;;;;;2.08;1.30;;;26.30;37.60;;;;;;5091687;28;20017;-88
2021/04/27 12:06:17;;;;;;;5.95;3.08;;;26.30;37.90;;;;;;5094096;28;20477;-90
2021/04/27 12:08:52;;;;;;;2.70;1.80;;;26.50;35.60;;;;;;5096038;28;20040;-85
2021/04/27 12:11:26;;;;;;;3.22;1.80;;;26.30;37.90;;;;;;5096037;28;20024;-84
2021/04/27 12:14:08;;;;;;;3.58;1.83;;;26.30;37.30;;;;;;5104945;28;20022;-85
2021/04/27 12:16:36;;;;;;;5.70;1.77;;;26.30;36.40;;;;;;5112261;28;20107;-86
2021/04/27 12:19:08;;;;;;;2.90;1.83;;;26.00;36.90;;;;;;5109448;28;20046;-85
2021/04/27 12:21:38;;;;;;;4.90;1.50;;;26.20;37.50;;;;;;5106974;28;20038;-87
2021/04/27 12:24:10;;;;;;;2.95;2.00;;;26.30;36.90;;;;;;5102316;28;20028;-87
2021/04/27 12:26:37;;;;;;;4.47;2.28;;;26.60;36.20;;;;;;5106369;28;20548;-87
2021/04/27 12:29:03;;;;;;;3.13;1.85;;;26.20;35.30;;;;;;5106385;28;20389;-89
2021/04/27 12:31:31;;;;;;;3.40;1.80;;;26.20;35.90;;;;;;5104042;28;20016;-88
2021/04/27 12:34:06;;;;;;;2.33;1.33;;;26.20;35.80;;;;;;5105273;28;20028;-88
2021/04/27 12:36:35;;;;;;;4.40;1.90;;;26.10;36.40;;;;;;5103016;28;20023;-85
2021/04/27 12:39:05;;;;;;;3.15;1.40;;;26.30;36.80;;;;;;5114563;28;20039;-86
2021/04/27 12:41:40;;;;;;;3.25;1.95;;;26.40;36.40;;;;;;5109752;27;20098;-87
2021/04/27 12:44:25;;;;;;;2.30;1.60;;;26.60;36.40;;;;;;5106304;28;20264;-88
2021/04/27 12:46:51;;;;;;;4.03;1.52;;;26.70;36.50;;;;;;5101568;28;20112;-85
2021/04/27 12:49:26;;;;;;;3.10;1.80;;;26.70;36.40;;;;;;5103170;28;20036;-85
2021/04/27 12:52:08;;;;;;;3.92;1.60;;;26.80;35.80;;;;;;5101936;28;20027;-83
2021/04/27 12:54:35;;;;;;;5.72;1.90;;;26.90;36.20;;;;;;5114929;28;20045;-82
2021/04/27 12:57:08;;;;;;;2.10;1.25;;;27.00;36.50;;;;;;5111740;28;20436;-85
2021/04/27 12:59:35;;;;;;;5.10;2.08;;;27.10;35.90;;;;;;5108933;28;20039;-90
2021/04/27 13:02:05;;;;;;;2.63;1.50;;;27.10;35.60;;;;;;5109007;28;20020;-87